Time;durP1;ratioP1;P1;durP2;ratioP2;P2;SDS_P1;SDS_P2;PMS_P1;PMS_P2;Temp;Humidity;BMP_temperature;BMP_pressure;BME280_temperature;BME280_humidity;BME280_pressure;Samples;Min_cycle;Max_cycle;Signal;HPM_P1;HPM_P2
2021/01/06 00:01:59;;;;;;;9.47;4.33;;;;;;;2.05;100.00;101202.28;5019687;28;20060;-66
2021/01/06 00:04:25;;;;;;;9.73;4.40;;;;;;;2.06;100.00;101195.47;5024060;28;20033;-68
2021/01/06 00:06:50;;;;;;;9.80;4.10;;;;;;;2.08;100.00;101193.81;5026949;28;20392;-68
2021/01/06 00:09:15;;;;;;;10.67;3.97;;;;;;;2.09;100.00;101198.16;5026975;28;20033;-68
2021/01/06 00:11:41;;;;;;;12.33;3.90;;;;;;;2.10;100.00;101188.72;5022275;28;20041;-68
2021/01/06 00:14:11;;;;;;;12.80;3.67;;;;;;;2.13;100.00;101202.63;5023602;28;20075;-66
2021/01/06 00:16:36;;;;;;;11.10;3.90;;;;;;;2.11;100.00;101191.38;5018245;28;20103;-67
2021/01/06 00:19:03;;;;;;;9.27;4.30;;;;;;;2.12;100.00;101195.72;5020639;28;20276;-66
2021/01/06 00:21:28;;;;;;;8.57;3.53;;;;;;;2.09;100.00;101195.59;5028467;28;20021;-66
2021/01/06 00:23:53;;;;;;;8.63;3.90;;;;;;;2.08;100.00;101188.66;5025404;28;20754;-66
2021/01/06 00:26:19;;;;;;;11.83;4.30;;;;;;;2.10;100.00;101189.63;5019827;28;20026;-67
2021/01/06 00:28:45;;;;;;;7.90;3.70;;;;;;;2.11;100.00;101188.78;5026719;28;20043;-66
2021/01/06 00:31:10;;;;;;;11.60;3.87;;;;;;;2.14;100.00;101183.75;5029199;28;20029;-66
2021/01/06 00:33:37;;;;;;;10.73;4.33;;;;;;;2.13;100.00;101181.13;5024505;28;20025;-67
2021/01/06 00:36:09;;;;;;;9.53;4.50;;;;;;;2.12;100.00;101179.34;5023741;28;20049;-67
2021/01/06 00:38:36;;;;;;;11.23;3.97;;;;;;;2.10;100.00;101184.47;5023920;28;20284;-67
2021/01/06 00:41:02;;;;;;;9.90;4.30;;;;;;;2.11;100.00;101178.47;5024757;28;20037;-66
2021/01/06 00:43:27;;;;;;;9.57;4.47;;;;;;;2.11;100.00;101186.22;5023327;28;20303;-67
2021/01/06 00:45:53;;;;;;;12.70;4.43;;;;;;;2.10;100.00;101181.88;5021141;28;20029;-66
2021/01/06 00:48:19;;;;;;;12.07;4.07;;;;;;;2.09;100.00;101174.94;5023104;28;20030;-66
2021/01/06 00:50:44;;;;;;;11.43;4.17;;;;;;;2.08;100.00;101178.34;5023573;28;20740;-67
2021/01/06 00:53:24;;;;;;;11.87;4.00;;;;;;;2.08;100.00;101173.19;5023047;28;20025;-67
2021/01/06 00:55:51;;;;;;;8.77;3.73;;;;;;;2.08;100.00;101172.31;5023600;28;20017;-67
2021/01/06 00:58:17;;;;;;;10.37;4.53;;;;;;;2.08;100.00;101173.19;5026553;28;20738;-67
2021/01/06 01:00:43;;;;;;;10.63;4.53;;;;;;;2.08;100.00;101168.03;5023432;28;20292;-66
2021/01/06 01:03:09;;;;;;;11.17;4.60;;;;;;;2.09;100.00;101169.78;5025170;28;20308;-67
2021/01/06 01:05:35;;;;;;;9.37;4.10;;;;;;;2.09;100.00;101169.78;5024464;28;20369;-67
2021/01/06 01:08:03;;;;;;;9.63;4.00;;;;;;;2.08;100.00;101173.19;5028343;28;20072;-66
2021/01/06 01:10:45;;;;;;;10.70;4.37;;;;;;;2.08;100.00;101168.03;5017282;28;20289;-68
2021/01/06 01:13:12;;;;;;;;;;;;;;;2.10;100.00;101170.69;5016647;28;20281;-67
2021/01/06 01:15:40;;;;;;;8.50;3.90;;;;;;;2.08;100.00;101162.88;5027835;28;20442;-67
2021/01/06 01:18:10;;;;;;;11.87;4.37;;;;;;;2.08;100.00;101162.88;5025007;28;20284;-67
2021/01/06 01:20:42;;;;;;;10.10;3.83;;;;;;;2.07;100.00;101166.28;5029825;28;20275;-67
2021/01/06 01:23:07;;;;;;;9.30;3.67;;;;;;;2.09;100.00;101162.06;5030332;28;20284;-66
2021/01/06 01:25:33;;;;;;;11.37;4.43;;;;;;;2.07;100.00;101162.81;5028826;28;20040;-67
2021/01/06 01:27:58;;;;;;;9.53;3.67;;;;;;;2.07;100.00;101158.53;5030065;28;20033;-66
2021/01/06 01:30:27;;;;;;;12.17;4.20;;;;;;;2.09;100.00;101154.31;5029448;28;20030;-67
2021/01/06 01:32:53;;;;;;;11.00;3.83;;;;;;;2.07;100.00;101150.81;5025649;28;20037;-67
2021/01/06 01:35:27;;;;;;;12.47;4.30;;;;;;;2.08;100.00;101152.56;5025980;28;20671;-67
2021/01/06 01:37:53;;;;;;;11.43;4.27;;;;;;;2.03;100.00;101149.75;5028053;28;20356;-68
2021/01/06 01:40:24;;;;;;;13.70;4.33;;;;;;;2.04;100.00;101153.22;5025686;28;20288;-68
2021/01/06 01:43:06;;;;;;;11.00;4.27;;;;;;;2.01;100.00;101153.09;5026550;28;20288;-67
2021/01/06 01:45:59;;;;;;;9.45;3.58;;;;;;;2.00;100.00;101153.91;5028070;28;20311;-66
2021/01/06 01:48:42;;;;;;;11.23;3.87;;;;;;;1.99;100.00;101141.84;5023763;28;20032;-67
2021/01/06 01:51:24;;;;;;;8.68;3.53;;;;;;;1.98;100.00;101145.25;5025808;28;20288;-67
2021/01/06 01:54:03;;;;;;;14.50;4.37;;;;;;;1.98;100.00;101137.50;5027441;28;20484;-67
2021/01/06 01:56:37;;;;;;;8.23;3.60;;;;;;;1.95;100.00;101138.25;5023093;28;20631;-66
2021/01/06 01:59:06;;;;;;;9.37;3.77;;;;;;;1.98;100.00;101138.38;5028212;28;20777;-66
2021/01/06 02:01:34;;;;;;;8.73;3.33;;;;;;;1.97;100.00;101133.16;5022466;28;20286;-67
2021/01/06 02:04:29;;;;;;;8.27;3.60;;;;;;;1.93;100.00;101133.81;5024089;28;20320;-66
2021/01/06 02:07:22;;;;;;;9.73;3.70;;;;;;;1.86;100.00;101131.81;5019641;28;20350;-67
2021/01/06 02:09:56;;;;;;;12.23;3.72;;;;;;;1.85;100.00;101128.34;5024201;28;20367;-67
2021/01/06 02:12:34;;;;;;;7.87;3.37;;;;;;;1.83;100.00;101126.53;5026150;28;20087;-67
2021/01/06 02:15:28;;;;;;;12.00;4.03;;;;;;;1.83;100.00;101123.97;5023797;28;20271;-68
2021/01/06 02:17:54;;;;;;;9.93;3.50;;;;;;;1.84;100.00;101123.13;5018010;28;20404;-67
2021/01/06 02:20:23;;;;;;;9.90;3.77;;;;;;;1.81;100.00;101125.56;5022829;28;20334;-67
2021/01/06 02:22:50;;;;;;;11.60;3.40;;;;;;;1.77;100.00;101122.84;5023070;28;20783;-66
2021/01/06 02:25:17;;;;;;;9.83;2.97;;;;;;;1.80;100.00;101127.25;5025713;28;20288;-67
2021/01/06 02:27:43;;;;;;;14.30;3.53;;;;;;;1.81;100.00;101121.28;5029859;28;20318;-66
2021/01/06 02:30:11;;;;;;;9.37;3.13;;;;;;;1.80;100.00;101116.94;5027329;28;20297;-66
2021/01/06 02:32:37;;;;;;;12.27;3.63;;;;;;;1.82;100.00;101117.00;5025384;28;20283;-67
2021/01/06 02:35:06;;;;;;;8.93;3.77;;;;;;;1.80;100.00;101110.91;5024765;28;20371;-67
2021/01/06 02:37:31;;;;;;;7.33;3.43;;;;;;;1.77;100.00;101112.53;5022829;28;20021;-68
2021/01/06 02:39:57;;;;;;;9.23;3.70;;;;;;;1.75;100.00;101101.28;5024123;28;20339;-67
2021/01/06 02:42:22;;;;;;;12.80;3.40;;;;;;;1.77;100.00;101112.53;5019330;28;20037;-67
2021/01/06 02:44:48;;;;;;;9.43;3.80;;;;;;;1.77;100.00;101109.97;5026770;28;20053;-67
2021/01/06 02:47:15;;;;;;;12.77;3.50;;;;;;;1.79;100.00;101102.28;5024635;28;20473;-67
2021/01/06 02:49:42;;;;;;;8.40;3.00;;;;;;;1.75;100.00;101101.28;5026747;28;20481;-67
2021/01/06 02:52:28;;;;;;;9.07;3.37;;;;;;;1.77;100.00;101102.22;5024099;28;20290;-67
2021/01/06 02:54:54;;;;;;;7.87;3.37;;;;;;;1.77;100.00;101104.81;5025855;28;20303;-68
2021/01/06 02:57:22;;;;;;;7.67;2.97;;;;;;;1.73;100.00;101102.94;5026697;28;20364;-68
2021/01/06 02:59:49;;;;;;;7.40;3.00;;;;;;;1.69;100.00;101090.69;5023502;28;20400;-66
2021/01/06 03:02:23;;;;;;;9.20;3.17;;;;;;;1.66;100.00;101100.00;5026813;28;20288;-67
2021/01/06 03:05:19;;;;;;;9.57;3.63;;;;;;;1.62;100.00;101088.69;5021340;28;20292;-67
2021/01/06 03:07:46;;;;;;;8.20;2.90;;;;;;;1.63;100.00;101090.44;4988473;28;20331;-67
2021/01/06 03:10:17;;;;;;;6.67;3.10;;;;;;;1.60;100.00;101087.75;5024414;28;20288;-67
2021/01/06 03:12:44;;;;;;;7.60;3.07;;;;;;;1.57;100.00;101085.00;5020269;28;20338;-67
2021/01/06 03:15:10;;;;;;;10.30;3.53;;;;;;;1.56;100.00;101083.25;5024901;28;20283;-67
2021/01/06 03:17:35;;;;;;;13.80;4.03;;;;;;;1.53;100.00;101083.13;5023911;28;20272;-68
2021/01/06 03:20:19;;;;;;;7.50;3.33;;;;;;;1.51;100.00;101081.31;5021804;28;20281;-67
2021/01/06 03:22:50;;;;;;;10.57;3.40;;;;;;;1.47;100.00;101088.03;5019867;28;20425;-67
2021/01/06 03:25:17;;;;;;;7.20;3.03;;;;;;;1.43;100.00;101091.25;5025009;28;20771;-67
2021/01/06 03:27:46;;;;;;;8.53;3.37;;;;;;;1.36;100.00;101084.09;5022838;28;20302;-67
2021/01/06 03:30:38;;;;;;;11.03;3.47;;;;;;;1.31;100.00;101085.56;5026646;28;20758;-67
2021/01/06 03:33:12;;;;;;;10.27;3.05;;;;;;;1.26;100.00;101084.47;5027173;28;20284;-67
2021/01/06 03:35:48;;;;;;;9.13;3.30;;;;;;;1.18;100.00;101078.97;5018487;28;20389;-67
2021/01/06 03:38:34;;;;;;;9.00;3.77;;;;;;;1.12;100.00;101082.16;5025028;28;20290;-67
2021/01/06 03:41:01;;;;;;;8.70;3.67;;;;;;;1.11;100.00;101072.69;5023868;28;20300;-67
2021/01/06 03:43:30;;;;;;;9.33;3.80;;;;;;;1.08;100.00;101072.50;5019949;28;20284;-67
2021/01/06 03:46:02;;;;;;;10.10;4.10;;;;;;;1.06;100.00;101069.00;5023422;28;20297;-67
2021/01/06 03:48:35;;;;;;;12.65;4.53;;;;;;;1.07;100.00;101059.56;5025773;28;20284;-68
2021/01/06 03:51:12;;;;;;;12.53;4.50;;;;;;;1.14;100.00;101070.22;5018326;28;20061;-67
2021/01/06 03:53:42;;;;;;;10.63;4.67;;;;;;;1.17;100.00;101072.06;5022316;28;20294;-67
2021/01/06 03:56:25;;;;;;;11.90;4.53;;;;;;;1.14;100.00;101071.94;5022098;28;20276;-67
2021/01/06 03:59:19;;;;;;;12.33;4.37;;;;;;;1.13;100.00;101067.59;5024196;28;20375;-67
2021/01/06 04:02:04;;;;;;;10.83;4.33;;;;;;;1.16;100.00;101066.03;5020917;28;20362;-67
2021/01/06 04:04:35;;;;;;;10.83;4.27;;;;;;;1.18;100.00;101063.53;5017367;28;20280;-67
2021/01/06 04:07:01;;;;;;;10.23;4.10;;;;;;;1.20;100.00;101061.88;5027833;28;20335;-67
2021/01/06 04:10:02;;;;;;;11.60;3.97;;;;;;;1.23;100.00;101061.16;5024009;28;20315;-67
2021/01/06 04:12:28;;;;;;;10.10;3.93;;;;;;;1.23;100.00;101056.91;5015508;28;20641;-67
2021/01/06 04:14:53;;;;;;;10.57;4.03;;;;;;;1.24;100.00;101057.78;5026560;28;20330;-67
2021/01/06 04:17:35;;;;;;;10.20;4.00;;;;;;;1.22;100.00;101062.88;5022460;28;20484;-67
2021/01/06 04:20:39;;;;;;;10.98;3.90;;;;;;;1.20;100.00;101058.44;5017971;28;20117;-67
2021/01/06 04:23:08;;;;;;;8.93;3.87;;;;;;;1.20;100.00;101051.59;5013204;28;20052;-67
2021/01/06 04:25:35;;;;;;;11.77;4.13;;;;;;;1.22;100.00;101059.41;5017468;28;20284;-67
2021/01/06 04:28:13;;;;;;;12.00;4.40;;;;;;;1.22;100.00;101050.00;5025812;28;20318;-67
2021/01/06 04:30:49;;;;;;;10.07;4.33;;;;;;;1.23;100.00;101056.91;5021756;28;20276;-67
2021/01/06 04:33:19;;;;;;;10.27;4.10;;;;;;;1.21;100.00;101047.31;5024539;28;20306;-67
2021/01/06 04:35:45;;;;;;;13.73;4.37;;;;;;;1.18;100.00;101043.78;5026606;28;20694;-67
2021/01/06 04:38:29;;;;;;;11.47;4.50;;;;;;;1.20;100.00;101045.56;5027973;28;20359;-67
2021/01/06 04:40:58;;;;;;;11.60;4.30;;;;;;;1.20;100.00;101035.25;5022650;28;20338;-67
2021/01/06 04:44:01;;;;;;;12.90;3.87;;;;;;;1.18;100.00;101030.03;5022333;28;20365;-67
2021/01/06 04:46:29;;;;;;;10.02;3.40;;;;;;;1.17;100.00;101029.16;5022328;28;20284;-67
2021/01/06 04:49:03;;;;;;;11.83;4.23;;;;;;;1.16;100.00;101035.13;5027996;28;20485;-66
2021/01/06 04:51:52;;;;;;;10.93;4.53;;;;;;;1.16;100.00;101027.41;5022067;28;20413;-66
2021/01/06 04:54:49;;;;;;;13.33;4.60;;;;;;;1.18;100.00;101027.47;5024096;28;20359;-67
2021/01/06 04:57:52;;;;;;;10.77;3.70;;;;;;;1.16;100.00;101024.81;5017494;28;20284;-67
2021/01/06 05:00:37;;;;;;;10.20;3.85;;;;;;;1.15;100.00;101020.50;5018477;28;20276;-67
2021/01/06 05:03:28;;;;;;;11.93;3.97;;;;;;;1.15;100.00;101028.22;5024738;28;20776;-66
2021/01/06 05:06:03;;;;;;;9.50;4.17;;;;;;;1.16;100.00;101024.81;5031608;28;20947;-66
2021/01/06 05:08:51;;;;;;;13.03;4.47;;;;;;;1.15;100.00;101022.19;5029502;28;20383;-66
2021/01/06 05:11:32;;;;;;;10.40;4.23;;;;;;;1.14;100.00;101018.72;5028470;28;20290;-66
2021/01/06 05:14:01;;;;;;;10.90;4.40;;;;;;;1.12;100.00;101028.09;5019494;28;20284;-66
2021/01/06 05:16:42;;;;;;;13.00;4.37;;;;;;;1.10;100.00;101024.56;5026747;28;20370;-66
2021/01/06 05:19:22;;;;;;;11.90;4.50;;;;;;;1.12;100.00;101022.06;5019979;28;20379;-66
2021/01/06 05:21:48;;;;;;;10.50;3.87;;;;;;;1.10;100.00;101029.72;5013598;28;21029;-67
2021/01/06 05:24:32;;;;;;;11.47;4.43;;;;;;;1.07;100.00;101021.84;5030452;28;20272;-66
2021/01/06 05:27:06;;;;;;;11.20;4.83;;;;;;;1.08;100.00;101015.00;5017874;28;20305;-67
2021/01/06 05:29:32;;;;;;;12.97;4.53;;;;;;;1.06;100.00;101017.50;5028158;28;20285;-66
2021/01/06 05:31:58;;;;;;;11.07;4.60;;;;;;;1.05;100.00;101015.75;5014380;28;20280;-66
2021/01/06 05:34:26;;;;;;;11.00;4.20;;;;;;;1.04;100.00;101013.97;5009553;28;20276;-67
2021/01/06 05:36:52;;;;;;;11.50;4.53;;;;;;;1.07;100.00;101014.09;5016815;28;20022;-66
2021/01/06 05:39:28;;;;;;;12.57;4.50;;;;;;;1.05;100.00;101008.00;5015580;28;20331;-68
2021/01/06 05:42:10;;;;;;;9.27;3.87;;;;;;;1.08;100.00;101009.84;5012014;28;20040;-66
2021/01/06 05:44:36;;;;;;;;;;;;;;;1.09;100.00;101007.34;5019110;28;20342;-66
2021/01/06 05:47:13;;;;;;;10.23;4.23;;;;;;;1.09;100.00;101003.88;5026799;28;19920;-67
2021/01/06 05:49:38;;;;;;;9.60;3.90;;;;;;;1.06;100.00;101002.03;5021469;28;20032;-66
2021/01/06 05:52:10;;;;;;;14.10;4.27;;;;;;;1.07;100.00;101008.06;5032115;28;20707;-66
2021/01/06 05:54:45;;;;;;;10.77;4.18;;;;;;;1.06;100.00;100996.91;5022253;28;20057;-67
2021/01/06 05:57:40;;;;;;;10.57;4.10;;;;;;;1.09;100.00;101004.78;5018977;28;20033;-66
2021/01/06 06:00:31;;;;;;;11.27;3.93;;;;;;;1.07;100.00;101005.50;5021612;28;20772;-67
2021/01/06 06:03:33;;;;;;;11.30;4.50;;;;;;;1.08;100.00;101004.69;5029359;28;20261;-66
2021/01/06 06:06:41;;;;;;;10.27;4.00;;;;;;;1.10;100.00;101003.97;5021749;28;20833;-66
2021/01/06 06:09:34;;;;;;;11.10;4.33;;;;;;;1.09;100.00;101002.22;5023785;28;20276;-66
2021/01/06 06:12:05;;;;;;;9.10;4.00;;;;;;;1.12;100.00;101007.47;5024991;28;20347;-67
2021/01/06 06:15:05;;;;;;;10.23;3.90;;;;;;;1.15;100.00;101007.63;5026851;28;20025;-66
2021/01/06 06:18:18;;;;;;;9.77;3.63;;;;;;;1.17;100.00;101008.56;5025686;28;20275;-66
2021/01/06 06:21:18;;;;;;;8.23;3.75;;;;;;;1.12;100.00;101006.59;5024359;28;20304;-67
2021/01/06 06:24:02;;;;;;;13.17;4.13;;;;;;;1.09;100.00;101007.34;5013423;28;20036;-66
2021/01/06 06:27:01;;;;;;;10.30;3.70;;;;;;;1.09;100.00;101002.22;5016298;28;20779;-66
2021/01/06 06:29:35;;;;;;;9.03;3.30;;;;;;;1.07;100.00;101006.38;5020508;28;20288;-66
2021/01/06 06:32:02;;;;;;;9.13;3.73;;;;;;;1.06;100.00;101007.19;5019295;28;20963;-66
2021/01/06 06:34:38;;;;;;;11.37;3.93;;;;;;;1.06;100.00;100996.00;5036858;28;20287;-67
2021/01/06 06:37:09;;;;;;;9.37;3.83;;;;;;;1.04;100.00;100995.97;5028385;28;20284;-66
2021/01/06 06:39:47;;;;;;;8.97;3.93;;;;;;;1.04;100.00;101001.09;5032482;28;20275;-67
2021/01/06 06:42:18;;;;;;;10.07;3.77;;;;;;;1.02;100.00;100997.59;5017138;28;20315;-66
2021/01/06 06:44:54;;;;;;;9.80;3.30;;;;;;;1.02;100.00;101000.16;5031459;28;20327;-66
2021/01/06 06:47:24;;;;;;;10.03;3.83;;;;;;;1.02;100.00;101002.72;5039439;28;20658;-67
2021/01/06 06:50:01;;;;;;;11.13;4.37;;;;;;;1.01;100.00;100993.25;5040995;28;20268;-68
2021/01/06 06:52:38;;;;;;;13.00;4.13;;;;;;;1.05;100.00;100989.09;5027871;28;20295;-66
2021/01/06 06:55:22;;;;;;;12.17;3.70;;;;;;;1.00;100.00;100988.91;5015154;28;20265;-66
2021/01/06 06:58:20;;;;;;;9.37;3.77;;;;;;;0.99;100.00;100984.59;5028400;28;20288;-66
2021/01/06 07:00:47;;;;;;;10.43;3.90;;;;;;;0.97;100.00;100985.31;5012432;28;20297;-67
2021/01/06 07:03:13;;;;;;;10.20;3.90;;;;;;;1.00;100.00;100985.47;5018453;28;20268;-67
2021/01/06 07:05:47;;;;;;;10.60;4.30;;;;;;;0.98;100.00;100982.81;5018313;28;20296;-67
2021/01/06 07:08:21;;;;;;;9.17;3.70;;;;;;;0.99;100.00;100986.28;5023769;28;20291;-66
2021/01/06 07:11:14;;;;;;;10.03;3.87;;;;;;;0.97;100.00;100990.44;5030479;28;20315;-67
2021/01/06 07:13:40;;;;;;;11.90;4.18;;;;;;;0.96;100.00;100988.69;5025794;28;20373;-66
2021/01/06 07:16:15;;;;;;;11.20;3.53;;;;;;;0.94;100.00;100987.75;5022780;28;20021;-66
2021/01/06 07:18:49;;;;;;;10.67;3.90;;;;;;;0.91;100.00;100993.66;5027383;28;20292;-66
2021/01/06 07:21:33;;;;;;;10.83;3.70;;;;;;;0.92;100.00;100997.09;5031662;28;20252;-67
2021/01/06 07:23:58;;;;;;;8.70;3.40;;;;;;;0.92;100.00;100997.09;5017683;28;20411;-67
2021/01/06 07:26:36;;;;;;;13.47;4.33;;;;;;;0.95;100.00;100999.81;5029169;28;20754;-67
2021/01/06 07:29:05;;;;;;;10.03;4.07;;;;;;;0.94;100.00;101001.50;5027982;28;20028;-66
2021/01/06 07:31:38;;;;;;;10.17;4.13;;;;;;;0.96;100.00;100999.88;5020595;28;20287;-66
2021/01/06 07:34:07;;;;;;;8.97;3.53;;;;;;;0.95;100.00;101003.25;5010920;28;20272;-66
2021/01/06 07:36:46;;;;;;;11.00;3.80;;;;;;;0.94;100.00;100996.34;5025536;28;20268;-66
2021/01/06 07:39:20;;;;;;;8.23;3.07;;;;;;;0.93;100.00;100999.75;5020497;28;20329;-66
2021/01/06 07:41:45;;;;;;;11.63;3.77;;;;;;;0.94;100.00;101000.63;5025803;28;20283;-67
2021/01/06 07:44:32;;;;;;;10.77;3.67;;;;;;;0.97;100.00;101006.81;5041933;28;20288;-67
2021/01/06 07:47:00;;;;;;;9.87;4.00;;;;;;;0.97;100.00;100996.50;5036778;28;20033;-65
2021/01/06 07:49:35;;;;;;;10.97;3.93;;;;;;;0.95;100.00;101007.53;5028329;28;20359;-66
2021/01/06 07:52:22;;;;;;;12.53;3.70;;;;;;;0.97;100.00;101004.22;5027104;28;20744;-66
2021/01/06 07:54:57;;;;;;;12.00;4.13;;;;;;;0.99;100.00;101005.19;5042391;28;20274;-67
2021/01/06 07:57:36;;;;;;;7.83;3.40;;;;;;;0.98;100.00;101013.72;5024859;28;20272;-66
2021/01/06 08:00:08;;;;;;;9.83;3.10;;;;;;;0.99;100.00;101005.19;5016022;28;20279;-66
2021/01/06 08:02:40;;;;;;;10.38;3.30;;;;;;;1.03;100.00;101003.63;5027942;28;20273;-67
2021/01/06 08:05:20;;;;;;;;;;;;;;;1.01;100.00;100995.81;5047533;28;20029;-66
2021/01/06 08:07:46;;;;;;;8.27;3.30;;;;;;;1.01;100.00;101003.56;5010897;28;19924;-66
2021/01/06 08:10:16;;;;;;;8.47;3.50;;;;;;;1.01;100.00;100998.41;5017441;28;20649;-66
2021/01/06 08:12:42;;;;;;;12.70;3.03;;;;;;;1.03;100.00;101001.03;5012483;28;20511;-66
2021/01/06 08:15:19;;;;;;;8.20;3.13;;;;;;;1.04;100.00;101002.81;5013499;28;20356;-66
2021/01/06 08:17:52;;;;;;;8.10;3.10;;;;;;;1.04;100.00;101008.81;5029127;28;20510;-66
2021/01/06 08:20:22;;;;;;;8.00;3.13;;;;;;;1.04;100.00;101001.09;5048833;28;20298;-67
2021/01/06 08:22:56;;;;;;;8.67;3.03;;;;;;;1.04;100.00;101003.69;5034417;28;20664;-66
2021/01/06 08:25:27;;;;;;;6.53;2.70;;;;;;;1.03;100.00;101007.06;5047372;28;20635;-67
2021/01/06 08:27:53;;;;;;;7.70;3.30;;;;;;;1.05;100.00;101002.84;5045379;28;20373;-66
2021/01/06 08:30:28;;;;;;;7.60;3.10;;;;;;;1.05;100.00;101005.44;5028200;28;20818;-67
2021/01/06 08:33:11;;;;;;;9.03;3.50;;;;;;;1.05;100.00;101008.00;5040417;28;20026;-67
2021/01/06 08:35:42;;;;;;;7.03;2.70;;;;;;;1.07;100.00;101006.38;5012127;28;20346;-66
2021/01/06 08:38:27;;;;;;;7.70;3.20;;;;;;;1.09;100.00;101002.22;5016490;28;20435;-67
2021/01/06 08:40:52;;;;;;;7.60;2.87;;;;;;;1.11;100.00;101000.56;5023802;28;20280;-67
2021/01/06 08:43:18;;;;;;;10.07;3.37;;;;;;;1.15;100.00;101001.59;5025035;28;20281;-66
2021/01/06 08:45:56;;;;;;;7.03;2.67;;;;;;;1.16;100.00;101004.22;5028211;28;20025;-66
2021/01/06 08:48:22;;;;;;;6.93;2.67;;;;;;;1.22;100.00;101000.16;5009790;28;20025;-67
2021/01/06 08:50:48;;;;;;;8.17;2.73;;;;;;;1.22;100.00;101002.75;5020505;28;20284;-67
2021/01/06 08:53:14;;;;;;;8.20;2.70;;;;;;;1.23;100.00;100995.09;5009709;28;20512;-67
2021/01/06 08:55:56;;;;;;;6.70;2.83;;;;;;;1.28;100.00;100987.53;5011524;28;20346;-66
2021/01/06 08:58:38;;;;;;;6.18;2.65;;;;;;;1.33;100.00;101002.41;5029298;28;20271;-66
2021/01/06 09:01:03;;;;;;;5.97;2.40;;;;;;;1.36;100.00;100993.91;5020618;28;20068;-68
2021/01/06 09:03:56;;;;;;;8.60;2.77;;;;;;;1.44;100.00;101000.25;5024498;28;20279;-66
2021/01/06 09:06:22;;;;;;;;;;;;;;;1.46;100.00;100986.66;5012877;28;20523;-67
2021/01/06 09:09:03;;;;;;;6.17;2.57;;;;;;;1.55;100.00;100988.72;5009998;28;20312;-67
2021/01/06 09:11:32;;;;;;;6.93;2.40;;;;;;;1.53;100.00;101000.66;5030116;28;20496;-66
2021/01/06 09:14:16;;;;;;;5.93;2.33;;;;;;;1.53;100.00;100994.63;5020454;28;20334;-67
2021/01/06 09:16:46;;;;;;;7.10;2.33;;;;;;;1.55;100.00;100993.88;5020244;28;20688;-66
2021/01/06 09:19:25;;;;;;;7.27;2.67;;;;;;;1.51;100.00;100994.56;5013488;28;20331;-67
2021/01/06 09:21:51;;;;;;;5.40;2.13;;;;;;;1.53;100.00;100990.34;5022301;28;20454;-67
2021/01/06 09:24:27;;;;;;;5.80;2.40;;;;;;;1.53;100.00;100994.63;5029175;28;20295;-67
2021/01/06 09:27:02;;;;;;;5.77;1.93;;;;;;;1.54;100.00;100992.09;5023304;28;20655;-66
2021/01/06 09:29:29;;;;;;;5.63;2.00;;;;;;;1.53;100.00;100990.34;5020668;28;20299;-67
2021/01/06 09:32:01;;;;;;;6.00;2.30;;;;;;;1.59;100.00;100989.75;5028167;28;20327;-67
2021/01/06 09:34:30;;;;;;;5.83;2.03;;;;;;;1.60;100.00;100982.06;5033106;28;20288;-66
2021/01/06 09:36:57;;;;;;;7.43;2.30;;;;;;;1.60;100.00;100986.34;5013594;28;20264;-67
2021/01/06 09:39:27;;;;;;;6.67;2.43;;;;;;;1.60;100.00;100989.81;5012680;28;20277;-66
2021/01/06 09:41:56;;;;;;;6.77;2.33;;;;;;;1.65;100.00;100984.84;5024284;28;20272;-66
2021/01/06 09:44:21;;;;;;;7.10;2.30;;;;;;;1.68;100.00;100991.00;5031539;28;20730;-66
2021/01/06 09:47:14;;;;;;;6.67;2.63;;;;;;;1.71;100.00;100980.81;5023586;28;20383;-66
2021/01/06 09:49:43;;;;;;;5.55;2.50;;;;;;;1.74;100.00;100990.38;5014242;28;20105;-67
2021/01/06 09:52:23;;;;;;;6.37;2.43;;;;;;;1.80;100.00;100989.75;5035095;28;20349;-66
2021/01/06 09:54:52;;;;;;;6.73;2.60;;;;;;;1.81;100.00;100986.34;5023460;28;20785;-66
2021/01/06 09:57:20;;;;;;;6.90;2.60;;;;;;;1.82;100.00;100988.09;5028352;28;20289;-67
2021/01/06 09:59:50;;;;;;;5.60;2.23;;;;;;;1.81;100.00;100981.19;5027372;28;20666;-66
2021/01/06 10:02:29;;;;;;;6.03;2.40;;;;;;;1.87;100.00;100984.03;5017073;28;20268;-66
2021/01/06 10:05:09;;;;;;;6.53;2.73;;;;;;;1.91;100.00;100973.88;5031830;28;20315;-67
2021/01/06 10:07:55;;;;;;;6.23;2.63;;;;;;;1.89;100.00;100970.38;5020140;28;20683;-66
2021/01/06 10:10:24;;;;;;;5.07;2.10;;;;;;;1.98;100.00;100975.91;5041939;28;20358;-66
2021/01/06 10:12:55;;;;;;;8.23;2.30;;;;;;;1.99;100.00;100971.63;5049079;28;20340;-67
2021/01/06 10:15:51;;;;;;;5.63;2.53;;;;;;;2.00;100.00;100970.81;5027369;28;20284;-66
2021/01/06 10:18:34;;;;;;;5.43;2.73;;;;;;;1.96;100.00;100968.94;5029160;28;20639;-67
2021/01/06 10:21:00;;;;;;;5.77;2.13;;;;;;;1.92;100.00;100959.28;5030405;28;20284;-67
2021/01/06 10:23:35;;;;;;;8.20;2.80;;;;;;;1.87;100.00;100963.41;5013894;28;20780;-67
2021/01/06 10:26:15;;;;;;;7.37;2.33;;;;;;;1.78;100.00;100961.31;5043412;28;20030;-67
2021/01/06 10:28:44;;;;;;;6.77;2.77;;;;;;;1.78;100.00;100956.16;5020206;28;20283;-67
2021/01/06 10:31:27;;;;;;;7.23;2.43;;;;;;;1.77;100.00;100950.13;5023248;28;20283;-67
2021/01/06 10:34:07;;;;;;;6.32;2.70;;;;;;;1.77;100.00;100955.28;5040790;28;20284;-66
2021/01/06 10:37:08;;;;;;;6.47;2.83;;;;;;;1.74;100.00;100954.28;5025594;28;20437;-68
2021/01/06 10:39:39;;;;;;;6.43;2.93;;;;;;;1.67;100.00;100957.41;5031215;28;20866;-66
2021/01/06 10:42:28;;;;;;;6.27;2.70;;;;;;;1.64;100.00;100945.28;5014687;28;20276;-66
2021/01/06 10:45:01;;;;;;;8.83;2.87;;;;;;;1.63;100.00;100946.13;5012563;28;20261;-66
2021/01/06 10:47:29;;;;;;;7.63;2.70;;;;;;;1.62;100.00;100941.78;5015196;28;20861;-67
2021/01/06 10:50:13;;;;;;;8.10;2.93;;;;;;;1.58;100.00;100937.31;5033928;28;20778;-67
2021/01/06 10:53:03;;;;;;;7.97;2.67;;;;;;;1.53;100.00;100937.94;5040997;28;20401;-67
2021/01/06 10:55:39;;;;;;;7.83;3.23;;;;;;;1.52;100.00;100931.91;5016815;28;20343;-67
2021/01/06 10:58:10;;;;;;;7.63;2.67;;;;;;;1.47;100.00;100928.28;5023299;28;20651;-67
2021/01/06 11:00:51;;;;;;;12.20;3.07;;;;;;;1.53;100.00;100925.94;5032493;28;20276;-67
2021/01/06 11:03:24;;;;;;;6.80;2.93;;;;;;;1.56;100.00;100923.47;5035412;28;21007;-66
2021/01/06 11:05:52;;;;;;;7.60;2.97;;;;;;;1.58;100.00;100915.84;5015906;28;20280;-66
2021/01/06 11:08:55;;;;;;;8.13;3.17;;;;;;;1.63;100.00;100910.03;5014523;28;20850;-66
2021/01/06 11:12:08;;;;;;;8.13;3.28;;;;;;;1.67;100.00;100903.28;5042034;28;20279;-67
2021/01/06 11:15:05;;;;;;;6.97;3.08;;;;;;;1.67;100.00;100901.59;4962218;28;20039;-67
2021/01/06 11:17:38;;;;;;;9.97;3.70;;;;;;;1.64;100.00;100898.91;5030739;28;20026;-67
2021/01/06 11:20:22;;;;;;;8.70;3.20;;;;;;;1.69;100.00;100892.22;5027900;28;20275;-68
2021/01/06 11:22:49;;;;;;;9.37;3.70;;;;;;;1.62;100.00;100887.66;5012358;28;20659;-68
2021/01/06 11:25:40;;;;;;;9.53;3.73;;;;;;;1.63;100.00;100889.41;5016438;28;20289;-67
2021/01/06 11:28:06;;;;;;;10.43;4.00;;;;;;;1.74;100.00;100888.16;5011284;28;20869;-67
2021/01/06 11:30:37;;;;;;;9.83;3.83;;;;;;;1.74;100.00;100885.56;5011208;28;20276;-67
2021/01/06 11:33:14;;;;;;;10.47;3.93;;;;;;;1.80;100.00;100886.63;5048274;28;20093;-68
2021/01/06 11:35:51;;;;;;;12.10;3.93;;;;;;;1.80;100.00;100876.31;5030136;28;20288;-67
2021/01/06 11:38:42;;;;;;;9.53;3.67;;;;;;;1.76;100.00;100883.94;5021587;28;20288;-66
2021/01/06 11:41:11;;;;;;;10.27;3.90;;;;;;;1.71;100.00;100880.31;5028578;28;20649;-67
2021/01/06 11:43:58;;;;;;;9.10;3.40;;;;;;;1.68;100.00;100866.38;5027518;28;20283;-68
2021/01/06 11:46:26;;;;;;;8.53;3.63;;;;;;;1.64;100.00;100870.56;5033254;28;20810;-67
2021/01/06 11:49:23;;;;;;;10.20;3.30;;;;;;;1.57;100.00;100867.66;5037464;28;20331;-68
2021/01/06 11:52:22;;;;;;;8.37;3.60;;;;;;;1.44;100.00;100867.16;5030215;28;20677;-68
2021/01/06 11:55:05;;;;;;;10.90;3.67;;;;;;;1.43;100.00;100864.53;5030425;28;20774;-68
2021/01/06 11:57:39;;;;;;;11.40;4.00;;;;;;;1.47;100.00;100858.69;5031857;28;20650;-68
2021/01/06 12:00:16;;;;;;;8.93;4.03;;;;;;;1.53;100.00;100860.63;5041949;28;20788;-68